createdAt,value
2023-11-13T00:00:53.184Z,85.02
2023-11-13T00:03:21.518Z,84.35
2023-11-13T00:05:50.356Z,83.98
2023-11-13T00:08:18.429Z,83.90
2023-11-13T00:10:48.105Z,84.30
2023-11-13T00:13:16.208Z,84.52
2023-11-13T00:15:44.351Z,83.76
2023-11-13T00:18:12.849Z,83.38
2023-11-13T00:20:40.947Z,83.93
2023-11-13T00:23:09.129Z,83.38
2023-11-13T00:25:37.398Z,82.90
2023-11-13T00:28:07.060Z,83.23
2023-11-13T00:30:35.155Z,83.30
2023-11-13T00:33:03.338Z,83.76
2023-11-13T00:35:31.420Z,83.73
2023-11-13T00:37:59.509Z,83.39
2023-11-13T00:40:28.896Z,82.99
2023-11-13T00:42:57.104Z,82.87
2023-11-13T00:45:26.632Z,82.65
2023-11-13T00:47:54.672Z,83.16
2023-11-13T00:50:22.823Z,83.17
2023-11-13T00:52:51.450Z,83.18
2023-11-13T00:55:19.593Z,82.74
2023-11-13T00:57:47.720Z,82.30
2023-11-13T01:00:16.737Z,82.64
2023-11-13T01:02:46.109Z,82.31
2023-11-13T01:05:14.266Z,82.40
2023-11-13T01:07:42.499Z,82.49
2023-11-13T01:10:11.273Z,82.42
2023-11-13T01:12:39.346Z,82.49
2023-11-13T01:15:10.099Z,82.38
2023-11-13T01:17:38.675Z,82.51
2023-11-13T01:20:10.130Z,81.99
2023-11-13T01:22:38.191Z,81.68
2023-11-13T01:25:07.000Z,81.76
2023-11-13T01:27:35.882Z,82.17
2023-11-13T01:30:04.217Z,81.47
2023-11-13T01:32:32.384Z,80.52
2023-11-13T01:35:00.498Z,80.99
2023-11-13T01:37:30.213Z,80.80
2023-11-13T01:39:58.423Z,80.83
2023-11-13T01:42:27.965Z,81.47
2023-11-13T01:44:57.162Z,80.78
2023-11-13T01:47:25.516Z,80.59
2023-11-13T01:49:53.706Z,80.05
2023-11-13T01:52:22.526Z,80.63
2023-11-13T01:54:52.180Z,81.26
2023-11-13T01:57:20.559Z,80.75
2023-11-13T01:59:49.192Z,80.29
2023-11-13T02:02:18.543Z,80.44
2023-11-13T02:04:46.820Z,80.79
2023-11-13T02:07:15.076Z,80.43
2023-11-13T02:09:43.430Z,80.53
2023-11-13T02:12:13.627Z,80.20
2023-11-13T02:14:41.685Z,80.06
2023-11-13T02:17:11.881Z,80.09
2023-11-13T02:19:39.993Z,79.97
2023-11-13T02:22:09.637Z,80.29
2023-11-13T02:24:39.266Z,80.75
2023-11-13T02:27:09.181Z,79.52
2023-11-13T02:29:37.461Z,80.23
2023-11-13T02:32:06.556Z,80.25
2023-11-13T02:34:36.449Z,80.64
2023-11-13T02:37:04.579Z,80.36
2023-11-13T02:39:33.176Z,79.42
2023-11-13T02:42:02.646Z,79.67
2023-11-13T02:44:31.211Z,80.14
2023-11-13T02:46:59.220Z,79.46
2023-11-13T02:49:27.214Z,79.39
2023-11-13T02:51:55.249Z,79.47
2023-11-13T02:54:23.422Z,80.16
2023-11-13T02:56:51.469Z,79.16
2023-11-13T02:59:20.851Z,79.56
2023-11-13T03:01:49.225Z,80.09
2023-11-13T03:04:17.393Z,79.27
2023-11-13T03:06:45.438Z,79.70
2023-11-13T03:09:13.456Z,79.72
2023-11-13T03:11:41.574Z,79.53
2023-11-13T03:14:09.599Z,79.62
2023-11-13T03:16:39.084Z,79.68
2023-11-13T03:19:07.161Z,79.81
2023-11-13T03:21:35.915Z,79.82
2023-11-13T03:24:04.145Z,79.51
2023-11-13T03:26:32.294Z,79.43
2023-11-13T03:29:00.473Z,79.72
2023-11-13T03:31:28.653Z,80.15
2023-11-13T03:33:58.159Z,80.18
2023-11-13T03:36:26.447Z,80.05
2023-11-13T03:38:57.536Z,80.37
2023-11-13T03:41:25.831Z,79.74
2023-11-13T03:43:53.874Z,80.30
2023-11-13T03:46:22.052Z,80.76
2023-11-13T03:48:50.131Z,80.16
2023-11-13T03:51:20.548Z,80.37
2023-11-13T03:53:51.539Z,80.61
2023-11-13T03:56:21.592Z,80.13
2023-11-13T03:58:49.977Z,80.12
2023-11-13T04:01:23.418Z,79.82
2023-11-13T04:03:51.756Z,80.16
2023-11-13T04:06:23.664Z,80.44
2023-11-13T04:08:51.717Z,80.47
2023-11-13T04:11:22.765Z,80.87
2023-11-13T04:13:51.985Z,81.30
2023-11-13T04:16:20.144Z,80.37
2023-11-13T04:18:50.985Z,80.63
2023-11-13T04:21:25.740Z,80.75
2023-11-13T04:23:54.198Z,80.23
2023-11-13T04:26:22.209Z,81.01
2023-11-13T04:28:50.185Z,80.33
2023-11-13T04:31:18.428Z,81.00
2023-11-13T04:33:46.761Z,80.82
2023-11-13T04:36:14.984Z,79.97
2023-11-13T04:38:44.412Z,80.53
2023-11-13T04:41:16.600Z,80.52
2023-11-13T04:43:45.006Z,81.01
2023-11-13T04:46:14.168Z,81.01
2023-11-13T04:48:44.073Z,81.19
2023-11-13T04:51:12.185Z,80.39
2023-11-13T04:53:40.807Z,80.49
2023-11-13T04:56:13.332Z,80.81
2023-11-13T04:58:41.926Z,80.66
2023-11-13T05:01:09.985Z,80.84
2023-11-13T05:03:38.289Z,80.04
2023-11-13T05:06:08.469Z,81.12
2023-11-13T05:08:39.763Z,81.15
2023-11-13T05:11:07.979Z,80.65
2023-11-13T05:13:37.485Z,80.65
2023-11-13T05:16:07.673Z,80.17
2023-11-13T05:18:35.917Z,80.47
2023-11-13T05:21:04.015Z,80.79
2023-11-13T05:23:32.140Z,80.92
2023-11-13T05:26:00.296Z,81.24
2023-11-13T05:28:28.389Z,80.81
2023-11-13T05:30:57.891Z,81.18
2023-11-13T05:33:28.079Z,81.09
2023-11-13T05:35:57.822Z,81.13
2023-11-13T05:38:25.842Z,81.57
2023-11-13T05:40:53.978Z,80.50
2023-11-13T05:43:22.012Z,81.40
2023-11-13T05:45:50.543Z,80.90
2023-11-13T05:48:20.496Z,80.88
2023-11-13T05:50:48.468Z,80.66
2023-11-13T05:53:16.525Z,80.87
2023-11-13T05:55:44.700Z,80.46
2023-11-13T05:58:12.787Z,80.98
2023-11-13T06:00:41.673Z,81.51
2023-11-13T06:03:09.750Z,81.52
2023-11-13T06:05:39.355Z,81.03
2023-11-13T06:08:08.513Z,80.88
2023-11-13T06:10:46.325Z,80.81
2023-11-13T06:13:14.599Z,81.08
2023-11-13T06:15:42.871Z,81.10
2023-11-13T06:18:11.039Z,81.67
2023-11-13T06:20:40.464Z,81.52
2023-11-13T06:23:39.342Z,81.21
2023-11-13T06:26:08.745Z,81.07
2023-11-13T06:28:39.967Z,80.94
2023-11-13T06:31:08.424Z,81.17
2023-11-13T06:33:37.777Z,81.21
2023-11-13T06:36:10.455Z,81.56
2023-11-13T06:38:41.237Z,81.05
2023-11-13T06:41:11.894Z,81.74
2023-11-13T06:43:41.332Z,81.62
2023-11-13T06:46:10.626Z,80.70
2023-11-13T06:48:41.238Z,80.47
2023-11-13T06:51:11.061Z,81.13
2023-11-13T06:53:39.286Z,81.32
2023-11-13T06:56:10.660Z,81.91
2023-11-13T06:58:46.338Z,81.63
2023-11-13T07:01:15.436Z,81.04
2023-11-13T07:03:44.858Z,80.73
2023-11-13T07:06:14.452Z,80.96
2023-11-13T07:08:42.806Z,80.20
2023-11-13T07:11:14.870Z,80.94
2023-11-13T07:13:42.937Z,81.61
2023-11-13T07:16:11.995Z,80.84
2023-11-13T07:18:40.191Z,80.42
2023-11-13T07:21:08.602Z,80.48
2023-11-13T07:23:44.906Z,81.50
2023-11-13T07:26:13.121Z,83.00
2023-11-13T07:28:41.315Z,82.79
2023-11-13T07:31:12.811Z,83.74
2023-11-13T07:33:42.164Z,84.60
2023-11-13T07:36:12.759Z,83.80
2023-11-13T07:38:44.667Z,84.42
2023-11-13T07:41:13.370Z,84.74
2023-11-13T07:43:41.828Z,83.66
2023-11-13T07:46:10.999Z,83.98
2023-11-13T07:48:39.962Z,86.13
2023-11-13T07:51:08.973Z,85.84
2023-11-13T07:53:39.524Z,85.45
2023-11-13T07:56:14.915Z,85.88
2023-11-13T07:58:44.026Z,85.36
2023-11-13T08:01:13.185Z,86.48
2023-11-13T08:03:43.491Z,87.05
2023-11-13T08:06:14.514Z,87.28
2023-11-13T08:08:42.595Z,87.44
2023-11-13T08:11:15.590Z,88.48
2023-11-13T08:13:43.776Z,87.55
2023-11-13T08:16:12.089Z,88.28
2023-11-13T08:18:41.434Z,87.94
2023-11-13T08:21:11.721Z,87.99
2023-11-13T08:23:39.835Z,87.28
2023-11-13T08:26:16.093Z,87.62
2023-11-13T08:28:45.685Z,87.83
2023-11-13T08:31:17.661Z,88.16
2023-11-13T08:33:49.200Z,88.58
2023-11-13T08:36:18.677Z,88.12
2023-11-13T08:38:46.654Z,87.90
2023-11-13T08:41:16.028Z,88.25
2023-11-13T08:43:46.435Z,88.23
2023-11-13T08:46:15.184Z,88.57
2023-11-13T08:48:46.067Z,89.10
2023-11-13T08:51:16.772Z,88.43
2023-11-13T08:53:44.846Z,88.38
2023-11-13T08:56:16.710Z,87.29
2023-11-13T08:58:46.664Z,86.68
2023-11-13T09:01:16.989Z,87.78
2023-11-13T09:03:48.031Z,86.59
2023-11-13T09:06:18.405Z,86.24
2023-11-13T09:08:49.365Z,86.22
2023-11-13T09:11:21.181Z,85.52
2023-11-13T09:13:52.674Z,84.46
2023-11-13T09:16:24.446Z,83.56
2023-11-13T09:18:56.363Z,83.54
2023-11-13T09:21:24.405Z,83.78
2023-11-13T09:23:52.713Z,84.02
2023-11-13T09:26:21.256Z,82.07
2023-11-13T09:28:50.765Z,81.24
2023-11-13T09:31:19.275Z,82.10
2023-11-13T09:33:49.795Z,82.47
2023-11-13T09:36:18.658Z,81.69
2023-11-13T09:38:46.727Z,81.22
2023-11-13T09:41:20.131Z,81.02
2023-11-13T09:43:48.892Z,81.31
2023-11-13T09:46:21.766Z,81.84
2023-11-13T09:48:53.471Z,80.59
2023-11-13T09:51:29.927Z,81.30
2023-11-13T09:54:00.422Z,80.19
2023-11-13T09:56:31.723Z,80.76
2023-11-13T09:59:03.752Z,81.25
2023-11-13T10:01:39.922Z,80.10
2023-11-13T10:04:11.423Z,80.91
2023-11-13T10:06:42.613Z,82.12
2023-11-13T10:09:11.982Z,84.08
2023-11-13T10:11:40.105Z,81.72
2023-11-13T10:14:15.182Z,80.41
2023-11-13T10:16:54.054Z,80.67
2023-11-13T10:19:22.697Z,79.46
2023-11-13T10:21:54.163Z,80.16
2023-11-13T10:24:37.676Z,80.66
2023-11-13T10:27:14.318Z,81.96
2023-11-13T10:29:44.705Z,80.34
2023-11-13T10:32:18.138Z,80.17
2023-11-13T10:34:50.646Z,80.36
2023-11-13T10:37:19.705Z,80.56
2023-11-13T10:39:49.034Z,80.97
2023-11-13T10:42:20.245Z,81.61
2023-11-13T10:44:48.722Z,81.93
2023-11-13T10:47:27.381Z,81.15
2023-11-13T10:49:56.817Z,81.96
2023-11-13T10:52:25.578Z,82.06
2023-11-13T10:54:56.445Z,81.52
2023-11-13T10:57:27.882Z,81.45
2023-11-13T10:59:57.975Z,81.43
2023-11-13T11:02:40.034Z,80.96
2023-11-13T11:05:12.273Z,81.41
2023-11-13T11:07:43.353Z,81.62
2023-11-13T11:10:11.949Z,82.78
2023-11-13T11:12:49.368Z,82.55
2023-11-13T11:15:33.480Z,80.91
2023-11-13T11:18:17.487Z,80.81
2023-11-13T11:20:53.899Z,81.32
2023-11-13T11:23:24.723Z,80.82
2023-11-13T11:25:54.859Z,80.86
2023-11-13T11:28:46.383Z,80.31
2023-11-13T11:31:54.486Z,80.32
2023-11-13T11:34:24.980Z,80.07
2023-11-13T11:36:57.885Z,78.91
2023-11-13T11:39:26.848Z,78.48
2023-11-13T11:41:56.964Z,78.43
2023-11-13T11:44:29.234Z,79.21
2023-11-13T11:47:05.633Z,78.33
2023-11-13T11:49:46.208Z,78.68
2023-11-13T11:52:14.470Z,79.71
2023-11-13T11:54:42.664Z,79.21
2023-11-13T11:57:18.467Z,79.50
2023-11-13T11:59:49.393Z,79.93
2023-11-13T12:02:20.918Z,78.63
2023-11-13T12:04:52.812Z,78.19
2023-11-13T12:07:21.053Z,77.45
2023-11-13T12:09:52.425Z,77.64
2023-11-13T12:12:21.953Z,77.62
2023-11-13T12:14:51.367Z,78.12
2023-11-13T12:17:22.295Z,78.08
2023-11-13T12:19:57.236Z,78.06
2023-11-13T12:22:35.346Z,78.79
2023-11-13T12:25:05.415Z,78.85
2023-11-13T12:27:34.429Z,79.50
2023-11-13T12:30:04.594Z,78.52
2023-11-13T12:32:36.518Z,78.26
2023-11-13T12:35:08.761Z,78.93
2023-11-13T12:37:41.680Z,79.68
2023-11-13T12:40:15.643Z,79.06
2023-11-13T12:42:47.014Z,78.72
2023-11-13T12:45:21.870Z,78.89
2023-11-13T12:47:51.237Z,78.31
2023-11-13T12:50:25.056Z,78.65
2023-11-13T12:53:01.087Z,78.41
2023-11-13T12:55:29.477Z,80.21
2023-11-13T12:57:59.379Z,77.98
2023-11-13T13:00:28.749Z,77.54
2023-11-13T13:02:57.147Z,77.81
2023-11-13T13:05:32.533Z,77.34
2023-11-13T13:08:08.000Z,77.86
2023-11-13T13:10:39.105Z,78.17
2023-11-13T13:13:09.582Z,77.21
2023-11-13T13:15:40.405Z,78.54
2023-11-13T13:18:08.479Z,78.28
2023-11-13T13:20:38.397Z,78.19
2023-11-13T13:23:07.676Z,78.42
2023-11-13T13:25:38.808Z,78.59
2023-11-13T13:28:08.479Z,77.97
2023-11-13T13:30:38.218Z,78.39
2023-11-13T13:33:11.289Z,78.92
2023-11-13T13:35:42.039Z,79.44
2023-11-13T13:38:17.655Z,79.35
2023-11-13T13:40:46.806Z,79.33
2023-11-13T13:43:15.185Z,79.48
2023-11-13T13:45:51.682Z,79.44
2023-11-13T13:48:19.821Z,78.96
2023-11-13T13:50:52.650Z,79.46
2023-11-13T13:53:25.278Z,79.44
2023-11-13T13:55:53.458Z,79.81
2023-11-13T13:58:26.709Z,80.41
2023-11-13T14:00:55.320Z,80.68
2023-11-13T14:03:23.796Z,80.16
2023-11-13T14:05:53.256Z,80.85
2023-11-13T14:08:25.948Z,80.88
2023-11-13T14:10:54.698Z,79.74
2023-11-13T14:13:26.410Z,80.69
2023-11-13T14:16:04.934Z,79.54
2023-11-13T14:18:39.743Z,78.90
2023-11-13T14:21:12.342Z,79.81
2023-11-13T14:23:43.407Z,79.58
2023-11-13T14:26:16.258Z,80.18
2023-11-13T14:28:44.808Z,80.35
2023-11-13T14:31:12.972Z,80.82
2023-11-13T14:33:45.238Z,79.78
2023-11-13T14:36:18.020Z,79.91
2023-11-13T14:38:49.101Z,80.22
2023-11-13T14:41:17.162Z,80.30
2023-11-13T14:43:45.249Z,81.01
2023-11-13T14:46:13.732Z,80.22
2023-11-13T14:48:41.909Z,81.47
2023-11-13T14:51:11.859Z,82.88
2023-11-13T14:53:42.009Z,82.88
2023-11-13T14:56:16.100Z,81.56
2023-11-13T14:58:44.206Z,80.93
2023-11-13T15:01:12.961Z,80.26
2023-11-13T15:03:44.442Z,80.40
2023-11-13T15:06:12.557Z,80.96
2023-11-13T15:08:42.771Z,80.53
2023-11-13T15:11:13.916Z,80.57
2023-11-13T15:13:42.437Z,80.30
2023-11-13T15:16:11.976Z,80.55
2023-11-13T15:18:47.807Z,81.33
2023-11-13T15:21:19.430Z,81.22
2023-11-13T15:23:56.526Z,81.16
2023-11-13T15:26:24.676Z,81.10
2023-11-13T15:28:52.821Z,80.88
2023-11-13T15:31:25.610Z,81.30
2023-11-13T15:33:53.928Z,81.30
2023-11-13T15:36:23.557Z,81.18
2023-11-13T15:38:53.022Z,81.28
2023-11-13T15:41:24.573Z,81.96
2023-11-13T15:43:54.477Z,81.58
2023-11-13T15:46:23.035Z,81.71
2023-11-13T15:48:51.182Z,81.56
2023-11-13T15:51:27.307Z,81.17
2023-11-13T15:53:59.777Z,81.66
2023-11-13T15:56:27.911Z,81.55
2023-11-13T15:58:55.985Z,81.14
2023-11-13T16:01:31.607Z,81.50
2023-11-13T16:04:07.303Z,82.05
2023-11-13T16:06:38.176Z,81.34
2023-11-13T16:09:13.673Z,82.02
2023-11-13T16:11:41.962Z,82.13
2023-11-13T16:14:10.427Z,81.91
2023-11-13T16:16:41.270Z,81.21
2023-11-13T16:19:09.527Z,81.36
2023-11-13T16:21:37.591Z,81.19
2023-11-13T16:24:07.821Z,80.82
2023-11-13T16:26:41.424Z,80.63
2023-11-13T16:29:10.000Z,80.77
2023-11-13T16:31:38.356Z,80.17
2023-11-13T16:34:10.033Z,80.33
2023-11-13T16:36:38.052Z,80.68
2023-11-13T16:39:14.768Z,80.74
2023-11-13T16:41:43.022Z,80.35
2023-11-13T16:44:11.714Z,80.13
2023-11-13T16:46:40.336Z,79.84
2023-11-13T16:49:16.235Z,80.59
2023-11-13T16:51:45.946Z,80.37
2023-11-13T16:54:17.549Z,80.38
2023-11-13T16:56:45.611Z,80.78
2023-11-13T16:59:16.778Z,80.62
2023-11-13T17:01:44.882Z,80.19
2023-11-13T17:04:15.980Z,80.68
2023-11-13T17:06:44.604Z,80.45
2023-11-13T17:09:17.009Z,80.51
2023-11-13T17:11:49.488Z,80.40
2023-11-13T17:14:18.658Z,80.91
2023-11-13T17:16:52.627Z,80.84
2023-11-13T17:19:29.817Z,81.26
2023-11-13T17:21:58.058Z,81.33
2023-11-13T17:24:26.243Z,80.92
2023-11-13T17:26:58.608Z,81.21
2023-11-13T17:29:30.870Z,81.54
2023-11-13T17:31:58.961Z,81.08
2023-11-13T17:34:29.163Z,80.75
2023-11-13T17:37:04.457Z,81.93
2023-11-13T17:39:37.643Z,82.56
2023-11-13T17:42:09.681Z,82.65
2023-11-13T17:44:37.945Z,82.76
2023-11-13T17:47:06.560Z,83.87
2023-11-13T17:49:34.836Z,83.83
2023-11-13T17:52:04.960Z,83.46
2023-11-13T17:54:33.053Z,84.28
2023-11-13T17:57:06.800Z,84.00
2023-11-13T17:59:37.485Z,83.94
2023-11-13T18:02:07.300Z,84.07
2023-11-13T18:04:40.085Z,84.32
2023-11-13T18:07:09.015Z,84.32
2023-11-13T18:09:39.792Z,84.02
2023-11-13T18:12:09.408Z,84.41
2023-11-13T18:14:39.429Z,84.35
2023-11-13T18:17:08.431Z,84.78
2023-11-13T18:19:54.012Z,84.88
2023-11-13T18:22:22.099Z,85.24
2023-11-13T18:24:50.196Z,85.13
2023-11-13T18:27:18.262Z,84.85
2023-11-13T18:29:51.472Z,85.14
2023-11-13T18:32:19.695Z,85.27
2023-11-13T18:34:47.745Z,85.50
2023-11-13T18:37:15.768Z,85.68
2023-11-13T18:39:43.998Z,85.42
2023-11-13T18:42:16.238Z,85.51
2023-11-13T18:44:44.453Z,86.32
2023-11-13T18:47:14.099Z,85.73
2023-11-13T18:49:42.273Z,86.58
2023-11-13T18:52:10.339Z,86.41
2023-11-13T18:54:40.124Z,87.03
2023-11-13T18:57:13.494Z,86.95
2023-11-13T18:59:42.283Z,86.59
2023-11-13T19:02:13.409Z,86.86
2023-11-13T19:04:45.492Z,86.65
2023-11-13T19:07:15.571Z,86.60
2023-11-13T19:09:46.396Z,86.98
2023-11-13T19:12:15.538Z,86.65
2023-11-13T19:14:43.526Z,86.51
2023-11-13T19:17:12.337Z,86.92
2023-11-13T19:19:40.467Z,86.31
2023-11-13T19:22:09.879Z,86.10
2023-11-13T19:24:38.121Z,85.77
2023-11-13T19:27:06.673Z,85.77
2023-11-13T19:29:34.896Z,85.44
2023-11-13T19:32:02.877Z,85.67
2023-11-13T19:34:34.992Z,85.17
2023-11-13T19:37:05.956Z,85.03
2023-11-13T19:39:36.283Z,84.75
2023-11-13T19:42:05.233Z,85.02
2023-11-13T19:44:43.972Z,85.49
2023-11-13T19:47:16.322Z,85.18
2023-11-13T19:49:44.419Z,84.36
2023-11-13T19:52:12.535Z,83.70
2023-11-13T19:54:50.641Z,83.70
2023-11-13T19:57:18.666Z,83.39
2023-11-13T19:59:47.712Z,83.41
2023-11-13T20:02:24.398Z,83.93
2023-11-13T20:04:53.832Z,83.28
2023-11-13T20:07:22.911Z,82.95
2023-11-13T20:09:55.247Z,82.74
2023-11-13T20:12:23.452Z,83.01
2023-11-13T20:14:54.317Z,83.01
2023-11-13T20:17:25.019Z,82.02
2023-11-13T20:19:56.661Z,82.15
2023-11-13T20:22:27.568Z,82.30
2023-11-13T20:24:59.018Z,82.49
2023-11-13T20:27:27.125Z,82.33
2023-11-13T20:30:04.439Z,82.12
2023-11-13T20:32:36.861Z,81.98
2023-11-13T20:35:06.130Z,81.65
2023-11-13T20:37:35.648Z,81.40
2023-11-13T20:40:07.175Z,81.34
2023-11-13T20:42:36.769Z,81.28
2023-11-13T20:45:06.141Z,81.33
2023-11-13T20:47:37.437Z,81.88
2023-11-13T20:50:06.736Z,81.22
2023-11-13T20:52:37.652Z,81.39
2023-11-13T20:55:07.603Z,81.41
2023-11-13T20:57:37.698Z,81.85
2023-11-13T21:00:08.580Z,82.34
2023-11-13T21:02:37.021Z,81.76
2023-11-13T21:05:07.469Z,81.35
2023-11-13T21:07:36.288Z,81.45
2023-11-13T21:10:04.866Z,81.95
2023-11-13T21:12:37.315Z,81.67
2023-11-13T21:15:09.950Z,80.89
2023-11-13T21:17:38.195Z,80.99
2023-11-13T21:20:11.179Z,81.46
2023-11-13T21:22:45.782Z,81.39
2023-11-13T21:25:15.912Z,81.71
2023-11-13T21:27:45.868Z,81.51
2023-11-13T21:30:18.926Z,82.10
2023-11-13T21:32:47.225Z,82.22
2023-11-13T21:35:15.332Z,82.64
2023-11-13T21:37:48.602Z,83.26
2023-11-13T21:40:16.958Z,83.49
2023-11-13T21:42:47.419Z,83.68
2023-11-13T21:45:18.233Z,82.93
2023-11-13T21:47:47.092Z,83.86
2023-11-13T21:50:15.349Z,83.20
2023-11-13T21:52:44.315Z,83.86
2023-11-13T21:55:12.903Z,84.11
2023-11-13T21:57:47.355Z,85.10
2023-11-13T22:00:19.136Z,85.56
2023-11-13T22:02:48.287Z,86.67
2023-11-13T22:05:19.309Z,87.47
2023-11-13T22:07:47.388Z,88.32
2023-11-13T22:10:15.475Z,88.64
2023-11-13T22:12:43.529Z,88.55
2023-11-13T22:15:22.834Z,89.04
2023-11-13T22:17:51.064Z,89.67
2023-11-13T22:20:23.159Z,89.91
2023-11-13T22:22:52.290Z,89.95
2023-11-13T22:25:20.564Z,90.02
2023-11-13T22:27:54.114Z,90.82
2023-11-13T22:30:23.499Z,90.02
2023-11-13T22:32:51.769Z,90.76
2023-11-13T22:35:19.864Z,91.26
2023-11-13T22:37:48.305Z,91.95
2023-11-13T22:40:16.399Z,91.95
2023-11-13T22:42:44.627Z,93.02
2023-11-13T22:45:12.846Z,93.80
2023-11-13T22:47:45.285Z,93.48
2023-11-13T22:50:13.371Z,92.98
2023-11-13T22:52:41.477Z,93.38
2023-11-13T22:55:10.545Z,93.58
2023-11-13T22:57:38.494Z,94.12
2023-11-13T23:00:11.538Z,94.33
2023-11-13T23:02:39.757Z,94.48
2023-11-13T23:05:09.897Z,94.17
2023-11-13T23:07:39.955Z,94.52
2023-11-13T23:10:08.530Z,93.67
2023-11-13T23:12:36.612Z,94.53
2023-11-13T23:15:11.322Z,94.47
2023-11-13T23:17:40.910Z,94.97
2023-11-13T23:20:14.855Z,94.81
2023-11-13T23:22:43.205Z,94.15
2023-11-13T23:25:12.350Z,93.93
2023-11-13T23:27:40.680Z,94.13
2023-11-13T23:30:10.570Z,93.09
2023-11-13T23:32:38.660Z,93.04
2023-11-13T23:35:16.024Z,92.63
2023-11-13T23:37:49.077Z,92.90
2023-11-13T23:40:19.746Z,93.12
2023-11-13T23:42:47.809Z,92.66
2023-11-13T23:45:17.095Z,92.09
2023-11-13T23:47:50.127Z,92.32
2023-11-13T23:50:19.171Z,91.32
2023-11-13T23:52:50.572Z,91.25
2023-11-13T23:55:19.348Z,91.57
2023-11-13T23:57:47.416Z,91.71
